createdAt,value
2022-11-14T00:01:05.653Z,20.5
2022-11-14T00:02:13.988Z,20.5
2022-11-14T00:03:22.337Z,20.5
2022-11-14T00:04:30.886Z,21.200001
2022-11-14T00:05:39.344Z,21.200001
2022-11-14T00:06:47.615Z,21.200001
2022-11-14T00:07:56.103Z,21.5
2022-11-14T00:09:04.450Z,21.5
2022-11-14T00:10:12.777Z,21.5
2022-11-14T00:11:21.314Z,22
2022-11-14T00:12:29.646Z,22
2022-11-14T00:13:37.987Z,22
2022-11-14T00:14:46.540Z,21.1
2022-11-14T00:15:54.868Z,21.1
2022-11-14T00:17:03.213Z,21.1
2022-11-14T00:18:11.762Z,20.1
2022-11-14T00:19:20.104Z,20.1
2022-11-14T00:20:28.434Z,20.1
2022-11-14T00:21:37.095Z,21.4
2022-11-14T00:22:45.299Z,21.4
2022-11-14T00:23:53.654Z,21.4
2022-11-14T00:25:02.212Z,21.799999
2022-11-14T00:26:10.532Z,21.799999
2022-11-14T00:27:18.876Z,21.799999
2022-11-14T00:28:27.660Z,20.299999
2022-11-14T00:29:35.799Z,20.299999
2022-11-14T00:30:44.154Z,20.299999
2022-11-14T00:31:52.689Z,21.1
2022-11-14T00:33:01.018Z,21.1
2022-11-14T00:34:09.365Z,21.1
2022-11-14T00:35:17.937Z,20.6
2022-11-14T00:36:26.256Z,20.6
2022-11-14T00:37:34.703Z,20.6
2022-11-14T00:38:43.147Z,20.700001
2022-11-14T00:39:51.488Z,20.700001
2022-11-14T00:40:59.824Z,20.700001
2022-11-14T00:42:08.369Z,21.6
2022-11-14T00:43:16.704Z,21.6
2022-11-14T00:44:25.065Z,21.6
2022-11-14T00:45:33.624Z,20.200001
2022-11-14T00:46:41.954Z,20.200001
2022-11-14T00:47:50.291Z,20.200001
2022-11-14T00:48:58.852Z,21
2022-11-14T00:50:07.177Z,21
2022-11-14T00:51:15.514Z,21
2022-11-14T00:52:24.044Z,20.4
2022-11-14T00:53:32.506Z,20.4
2022-11-14T00:54:40.718Z,20.4
2022-11-14T00:55:49.267Z,20.6
2022-11-14T00:56:57.587Z,20.6
2022-11-14T00:58:05.919Z,20.6
2022-11-14T00:59:14.477Z,20.799999
2022-11-14T01:00:22.870Z,20.799999
2022-11-14T01:01:31.136Z,20.799999
2022-11-14T01:02:39.666Z,22.200001
2022-11-14T01:03:48.006Z,22.200001
2022-11-14T01:04:56.348Z,22.200001
2022-11-14T01:06:04.882Z,22.299999
2022-11-14T01:07:13.262Z,22.299999
2022-11-14T01:08:21.586Z,22.299999
2022-11-14T01:09:30.330Z,22.1
2022-11-14T01:10:38.484Z,22.1
2022-11-14T01:11:46.827Z,22.1
2022-11-14T01:12:55.372Z,22.1
2022-11-14T01:14:03.736Z,22.1
2022-11-14T01:15:12.067Z,22.1
2022-11-14T01:16:20.625Z,21.5
2022-11-14T01:17:28.950Z,21.5
2022-11-14T01:18:37.295Z,21.5
2022-11-14T01:19:45.831Z,21.4
2022-11-14T01:20:54.160Z,21.4
2022-11-14T01:22:06.090Z,21.4
2022-11-14T01:23:11.036Z,20.9
2022-11-14T01:24:19.384Z,20.9
2022-11-14T01:25:27.836Z,20.9
2022-11-14T01:26:36.249Z,20.299999
2022-11-14T01:27:44.584Z,20.299999
2022-11-14T01:28:52.931Z,20.299999
2022-11-14T01:30:01.464Z,20.700001
2022-11-14T01:31:09.795Z,20.700001
2022-11-14T01:32:18.126Z,20.700001
2022-11-14T01:33:26.676Z,21.200001
2022-11-14T01:34:35.008Z,21.200001
2022-11-14T01:35:43.338Z,21.200001
2022-11-14T01:36:51.873Z,21.6
2022-11-14T01:38:00.217Z,21.6
2022-11-14T01:39:08.562Z,21.6
2022-11-14T01:40:17.100Z,19.799999
2022-11-14T01:41:25.566Z,19.799999
2022-11-14T01:42:33.771Z,19.799999
2022-11-14T01:43:42.325Z,20.700001
2022-11-14T01:44:50.658Z,20.700001
2022-11-14T01:45:58.988Z,20.700001
2022-11-14T01:47:07.550Z,20.299999
2022-11-14T01:48:15.899Z,20.299999
2022-11-14T01:49:24.246Z,20.299999
2022-11-14T01:50:32.819Z,20.799999
2022-11-14T01:51:41.167Z,20.799999
2022-11-14T01:52:49.503Z,20.799999
2022-11-14T01:53:58.050Z,20.1
2022-11-14T01:55:06.390Z,20.1
2022-11-14T01:56:14.727Z,20.1
2022-11-14T01:57:23.388Z,20.5
2022-11-14T01:58:31.969Z,20.5
2022-11-14T01:59:39.952Z,20.5
2022-11-14T02:00:48.487Z,20.700001
2022-11-14T02:01:56.889Z,20.700001
2022-11-14T02:03:05.175Z,20.700001
2022-11-14T02:04:15.292Z,20.4
2022-11-14T02:05:22.099Z,20.4
2022-11-14T02:06:30.417Z,20.4
2022-11-14T02:07:39.062Z,20.5
2022-11-14T02:08:47.314Z,20.5
2022-11-14T02:09:55.650Z,20.5
2022-11-14T02:11:04.198Z,21.299999
2022-11-14T02:12:12.524Z,21.299999
2022-11-14T02:13:20.985Z,21.299999
2022-11-14T02:14:29.403Z,21.5
2022-11-14T02:15:37.754Z,21.5
2022-11-14T02:17:00.992Z,21.5
2022-11-14T02:17:54.614Z,21.200001
2022-11-14T02:19:02.986Z,21.200001
2022-11-14T02:20:11.314Z,21.200001
2022-11-14T02:21:19.855Z,21.799999
2022-11-14T02:22:28.189Z,21.799999
2022-11-14T02:23:36.542Z,21.799999
2022-11-14T02:24:45.083Z,22.5
2022-11-14T02:25:53.417Z,22.5
2022-11-14T02:27:01.766Z,22.5
2022-11-14T02:28:10.309Z,21.5
2022-11-14T02:29:18.765Z,21.5
2022-11-14T02:30:26.974Z,21.5
2022-11-14T02:31:35.523Z,21.9
2022-11-14T02:33:09.838Z,21.9
2022-11-14T02:33:52.206Z,21.9
2022-11-14T02:35:00.753Z,22.200001
2022-11-14T02:36:09.086Z,22.200001
2022-11-14T02:37:17.422Z,22.200001
2022-11-14T02:38:25.973Z,21.6
2022-11-14T02:39:34.315Z,21.6
2022-11-14T02:40:42.654Z,21.6
2022-11-14T02:41:51.189Z,21.6
2022-11-14T02:42:59.527Z,21.6
2022-11-14T02:44:07.868Z,21.6
2022-11-14T02:45:16.441Z,22.1
2022-11-14T02:46:24.781Z,22.1
2022-11-14T02:47:33.094Z,22.1
2022-11-14T02:48:41.643Z,21.9
2022-11-14T02:49:49.979Z,21.9
2022-11-14T02:50:58.304Z,21.9
2022-11-14T02:52:06.846Z,21.9
2022-11-14T02:53:15.191Z,21.9
2022-11-14T02:54:23.537Z,21.9
2022-11-14T02:55:32.081Z,22.1
2022-11-14T02:56:40.416Z,22.1
2022-11-14T02:57:48.762Z,22.1
2022-11-14T02:58:57.305Z,22.200001
2022-11-14T03:00:08.784Z,22.200001
2022-11-14T03:01:20.517Z,22.200001
2022-11-14T03:02:22.519Z,22
2022-11-14T03:03:30.869Z,22
2022-11-14T03:04:39.211Z,22
2022-11-14T03:05:47.756Z,22
2022-11-14T03:06:56.131Z,22
2022-11-14T03:08:04.442Z,22
2022-11-14T03:09:12.975Z,22.200001
2022-11-14T03:10:21.315Z,22.200001
2022-11-14T03:11:29.647Z,22.200001
2022-11-14T03:12:38.202Z,21
2022-11-14T03:13:46.538Z,21
2022-11-14T03:14:54.868Z,21
2022-11-14T03:16:03.419Z,21.9
2022-11-14T03:17:11.882Z,21.9
2022-11-14T03:18:20.101Z,21.9
2022-11-14T03:19:28.644Z,21
2022-11-14T03:20:36.982Z,21
2022-11-14T03:21:45.303Z,21
2022-11-14T03:22:53.862Z,21.299999
2022-11-14T03:24:02.193Z,21.299999
2022-11-14T03:25:10.539Z,21.299999
2022-11-14T03:26:19.123Z,20.700001
2022-11-14T03:27:27.462Z,20.700001
2022-11-14T03:28:35.814Z,20.700001
2022-11-14T03:29:44.347Z,20.799999
2022-11-14T03:30:52.703Z,20.799999
2022-11-14T03:32:01.051Z,20.799999
2022-11-14T03:33:09.720Z,21.299999
2022-11-14T03:34:17.950Z,21.299999
2022-11-14T03:35:26.280Z,21.299999
2022-11-14T03:36:34.866Z,22.200001
2022-11-14T03:37:43.223Z,22.200001
2022-11-14T03:38:51.564Z,22.200001
2022-11-14T03:40:00.132Z,20.9
2022-11-14T03:41:08.444Z,20.9
2022-11-14T03:42:16.771Z,20.9
2022-11-14T03:43:25.334Z,20.1
2022-11-14T03:44:33.670Z,20.1
2022-11-14T03:45:42.003Z,20.1
2022-11-14T03:46:50.547Z,21.5
2022-11-14T03:47:58.895Z,21.5
2022-11-14T03:49:07.392Z,21.5
2022-11-14T03:50:15.822Z,21.799999
2022-11-14T03:51:24.152Z,21.799999
2022-11-14T03:52:32.482Z,21.799999
2022-11-14T03:53:41.039Z,21.200001
2022-11-14T03:54:49.365Z,21.200001
2022-11-14T03:55:57.718Z,21.200001
2022-11-14T03:57:06.254Z,21
2022-11-14T03:58:14.594Z,21
2022-11-14T03:59:22.931Z,21
2022-11-14T04:00:31.546Z,20.700001
2022-11-14T04:01:39.812Z,20.700001
2022-11-14T04:02:48.222Z,20.700001
2022-11-14T04:03:56.760Z,20.6
2022-11-14T04:05:05.209Z,20.6
2022-11-14T04:06:13.423Z,20.6
2022-11-14T04:07:22.030Z,21.6
2022-11-14T04:08:30.581Z,21.6
2022-11-14T04:09:38.636Z,21.6
2022-11-14T04:10:47.168Z,20
2022-11-14T04:11:55.505Z,20
2022-11-14T04:13:03.842Z,20
2022-11-14T04:14:12.383Z,20.4
2022-11-14T04:15:20.815Z,20.4
2022-11-14T04:16:29.051Z,20.4
2022-11-14T04:17:39.887Z,20.9
2022-11-14T04:18:45.931Z,20.9
2022-11-14T04:19:54.273Z,20.9
2022-11-14T04:21:02.950Z,21.6
2022-11-14T04:22:11.149Z,21.6
2022-11-14T04:23:19.483Z,21.6
2022-11-14T04:24:28.037Z,20.6
2022-11-14T04:25:36.365Z,20.6
2022-11-14T04:26:44.694Z,20.6
2022-11-14T04:27:53.246Z,21.299999
2022-11-14T04:29:01.584Z,21.299999
2022-11-14T04:30:09.921Z,21.299999
2022-11-14T04:31:18.462Z,20.4
2022-11-14T04:32:26.800Z,20.4
2022-11-14T04:33:35.199Z,20.4
2022-11-14T04:34:43.749Z,20.9
2022-11-14T04:35:52.084Z,20.9
2022-11-14T04:37:00.540Z,20.9
2022-11-14T04:38:08.966Z,20.5
2022-11-14T04:39:17.370Z,20.5
2022-11-14T04:40:25.775Z,20.5
2022-11-14T04:41:34.299Z,21.9
2022-11-14T04:42:42.647Z,21.9
2022-11-14T04:43:51.232Z,21.9
2022-11-14T04:44:59.598Z,21.4
2022-11-14T04:46:07.876Z,21.4
2022-11-14T04:47:16.212Z,21.4
2022-11-14T04:48:24.756Z,21.5
2022-11-14T04:49:33.093Z,21.5
2022-11-14T04:50:41.431Z,21.5
2022-11-14T04:51:49.967Z,21.200001
2022-11-14T04:52:58.423Z,21.200001
2022-11-14T04:54:06.639Z,21.200001
2022-11-14T04:55:15.209Z,21.4
2022-11-14T04:56:23.575Z,21.4
2022-11-14T04:57:31.927Z,21.4
2022-11-14T04:58:40.467Z,20.299999
2022-11-14T04:59:48.793Z,20.299999
2022-11-14T05:00:57.152Z,20.299999
2022-11-14T05:02:05.672Z,20.799999
2022-11-14T05:03:14.011Z,20.799999
2022-11-14T05:04:22.364Z,20.799999
2022-11-14T05:05:30.928Z,20
2022-11-14T05:06:39.276Z,20
2022-11-14T05:07:47.618Z,20
2022-11-14T05:08:56.186Z,20.4
2022-11-14T05:10:04.530Z,20.4
2022-11-14T05:11:12.868Z,20.4
2022-11-14T05:12:21.466Z,19.4
2022-11-14T05:13:29.802Z,19.4
2022-11-14T05:14:38.193Z,19.4
2022-11-14T05:15:46.733Z,20
2022-11-14T05:16:55.107Z,20
2022-11-14T05:18:03.440Z,20
2022-11-14T05:19:12.000Z,20
2022-11-14T05:20:20.362Z,20
2022-11-14T05:21:28.696Z,20
2022-11-14T05:22:37.244Z,19.5
2022-11-14T05:23:45.596Z,19.5
2022-11-14T05:24:54.044Z,19.5
2022-11-14T05:26:02.581Z,19.4
2022-11-14T05:27:10.914Z,19.4
2022-11-14T05:28:19.250Z,19.4
2022-11-14T05:29:27.813Z,19.799999
2022-11-14T05:30:36.148Z,19.799999
2022-11-14T05:31:44.494Z,19.799999
2022-11-14T05:32:53.036Z,19.6
2022-11-14T05:34:01.371Z,19.6
2022-11-14T05:35:09.739Z,19.6
2022-11-14T05:36:18.303Z,19.9
2022-11-14T05:37:26.654Z,19.9
2022-11-14T05:38:34.989Z,19.9
2022-11-14T05:39:43.535Z,19.4
2022-11-14T05:40:51.887Z,19.4
2022-11-14T05:42:00.252Z,19.4
2022-11-14T05:43:08.800Z,19.4
2022-11-14T05:44:17.139Z,19.4
2022-11-14T05:45:25.474Z,19.4
2022-11-14T05:46:34.019Z,20.200001
2022-11-14T05:47:42.359Z,20.200001
2022-11-14T05:48:50.692Z,20.200001
2022-11-14T05:49:59.232Z,19.4
2022-11-14T05:51:07.572Z,19.4
2022-11-14T05:52:15.914Z,19.4
2022-11-14T05:53:24.465Z,20.6
2022-11-14T05:54:32.797Z,20.6
2022-11-14T05:55:41.141Z,20.6
2022-11-14T05:56:49.712Z,20
2022-11-14T05:57:58.023Z,20
2022-11-14T05:59:06.349Z,20
2022-11-14T06:00:14.893Z,20.5
2022-11-14T06:01:23.229Z,20.5
2022-11-14T06:02:31.597Z,20.5
2022-11-14T06:03:40.114Z,19.700001
2022-11-14T06:04:48.437Z,19.700001
2022-11-14T06:05:56.782Z,19.700001
2022-11-14T06:07:05.373Z,19.5
2022-11-14T06:08:13.722Z,19.5
2022-11-14T06:09:22.049Z,19.5
2022-11-14T06:10:30.615Z,19.9
2022-11-14T06:11:38.939Z,19.9
2022-11-14T06:12:47.318Z,19.9
2022-11-14T06:13:55.851Z,20.5
2022-11-14T06:15:04.179Z,20.5
2022-11-14T06:16:12.523Z,20.5
2022-11-14T06:17:21.076Z,19.200001
2022-11-14T06:18:29.794Z,19.200001
2022-11-14T06:19:37.754Z,19.200001
2022-11-14T06:20:46.339Z,19.299999
2022-11-14T06:21:54.701Z,19.299999
2022-11-14T06:23:03.028Z,19.299999
2022-11-14T06:24:11.612Z,19.200001
2022-11-14T06:25:19.952Z,19.200001
2022-11-14T06:26:28.313Z,19.200001
2022-11-14T06:27:36.843Z,20.9
2022-11-14T06:28:45.325Z,20.9
2022-11-14T06:29:53.548Z,20.9
2022-11-14T06:31:02.084Z,20.299999
2022-11-14T06:32:10.428Z,20.299999
2022-11-14T06:33:18.799Z,20.299999
2022-11-14T06:34:27.370Z,20.1
2022-11-14T06:35:35.710Z,20.1
2022-11-14T06:36:44.071Z,20.1
2022-11-14T06:37:52.596Z,18.799999
2022-11-14T06:39:00.959Z,18.799999
2022-11-14T06:40:09.343Z,18.799999
2022-11-14T06:41:17.910Z,19
2022-11-14T06:42:26.245Z,19
2022-11-14T06:43:34.566Z,19
2022-11-14T06:44:43.139Z,19.200001
2022-11-14T06:45:51.460Z,19.200001
2022-11-14T06:46:59.786Z,19.200001
2022-11-14T06:48:08.330Z,18.200001
2022-11-14T06:49:16.671Z,18.200001
2022-11-14T06:50:25.006Z,18.200001
2022-11-14T06:51:33.559Z,18.4
2022-11-14T06:52:41.905Z,18.4
2022-11-14T06:53:50.232Z,18.4
2022-11-14T06:54:58.769Z,18.1
2022-11-14T06:56:07.103Z,18.1
2022-11-14T06:57:15.481Z,18.1
2022-11-14T06:58:24.485Z,17.700001
2022-11-14T06:59:32.830Z,17.700001
2022-11-14T07:00:41.197Z,17.700001
2022-11-14T07:01:49.724Z,18.1
2022-11-14T07:02:58.110Z,18.1
2022-11-14T07:04:06.390Z,18.1
2022-11-14T07:05:14.969Z,17.799999
2022-11-14T07:06:23.324Z,17.799999
2022-11-14T07:07:31.738Z,17.799999
2022-11-14T07:08:40.282Z,18
2022-11-14T07:09:48.609Z,18
2022-11-14T07:10:56.959Z,18
2022-11-14T07:12:05.511Z,18.6
2022-11-14T07:13:13.845Z,18.6
2022-11-14T07:14:22.179Z,18.6
2022-11-14T07:15:30.712Z,17.700001
2022-11-14T07:16:39.146Z,17.700001
2022-11-14T07:17:47.454Z,17.700001
2022-11-14T07:18:56.034Z,18.6
2022-11-14T07:20:04.409Z,18.6
2022-11-14T07:21:12.747Z,18.6
2022-11-14T07:22:21.339Z,18.799999
2022-11-14T07:23:29.674Z,18.799999
2022-11-14T07:24:38.020Z,18.799999
2022-11-14T07:25:46.554Z,18.4
2022-11-14T07:26:54.904Z,18.4
2022-11-14T07:28:03.245Z,18.4
2022-11-14T07:29:11.793Z,17.200001
2022-11-14T07:30:20.136Z,17.200001
2022-11-14T07:31:28.467Z,17.200001
2022-11-14T07:32:37.036Z,17.700001
2022-11-14T07:33:45.351Z,17.700001
2022-11-14T07:34:56.766Z,17.700001
2022-11-14T07:36:02.224Z,17.4
2022-11-14T07:37:10.563Z,17.4
2022-11-14T07:38:18.900Z,17.4
2022-11-14T07:39:27.442Z,17.5
2022-11-14T07:40:35.782Z,17.5
2022-11-14T07:41:44.136Z,17.5
2022-11-14T07:42:52.673Z,17.4
2022-11-14T07:44:01.017Z,17.4
2022-11-14T07:45:09.360Z,17.4
2022-11-14T07:46:17.886Z,17.1
2022-11-14T07:47:26.227Z,17.1
2022-11-14T07:48:34.581Z,17.1
2022-11-14T07:49:43.098Z,17.299999
2022-11-14T07:50:51.440Z,17.299999
2022-11-14T07:51:59.776Z,17.299999
2022-11-14T07:53:08.321Z,16.799999
2022-11-14T07:54:16.660Z,16.799999
2022-11-14T07:55:25.005Z,16.799999
2022-11-14T07:56:33.550Z,17.4
2022-11-14T07:57:43.986Z,17.4
2022-11-14T07:58:50.220Z,17.4
2022-11-14T07:59:58.761Z,17
2022-11-14T08:01:07.233Z,17
2022-11-14T08:02:15.438Z,17
2022-11-14T08:03:24.005Z,17
2022-11-14T08:04:32.383Z,17
2022-11-14T08:05:40.709Z,17
2022-11-14T08:06:49.307Z,17.4
2022-11-14T08:07:57.616Z,17.4
2022-11-14T08:09:05.970Z,17.4
2022-11-14T08:10:14.504Z,17.299999
2022-11-14T08:11:34.428Z,17.299999
2022-11-14T08:12:31.192Z,17.299999
2022-11-14T08:13:39.739Z,17.9
2022-11-14T08:14:48.080Z,17.9
2022-11-14T08:15:56.419Z,17.9
2022-11-14T08:17:04.969Z,18.1
2022-11-14T08:18:13.304Z,18.1
2022-11-14T08:19:21.654Z,18.1
2022-11-14T08:20:30.223Z,18.6
2022-11-14T08:21:38.548Z,18.6
2022-11-14T08:22:46.884Z,18.6
2022-11-14T08:23:55.430Z,18
2022-11-14T08:25:03.770Z,18
2022-11-14T08:26:12.102Z,18
2022-11-14T08:27:20.656Z,17.1
2022-11-14T08:28:29.225Z,17.1
2022-11-14T08:29:37.340Z,17.1
2022-11-14T08:30:45.875Z,17.4
2022-11-14T08:31:58.589Z,17.4
2022-11-14T08:33:02.561Z,17.4
2022-11-14T08:34:11.110Z,17
2022-11-14T08:35:19.446Z,17
2022-11-14T08:36:27.809Z,17
2022-11-14T08:37:36.333Z,17
2022-11-14T08:38:44.670Z,17
2022-11-14T08:39:53.009Z,17
2022-11-14T08:41:01.555Z,17.299999
2022-11-14T08:42:09.910Z,17.299999
2022-11-14T08:43:18.250Z,17.299999
2022-11-14T08:44:26.807Z,17
2022-11-14T08:45:35.133Z,17
2022-11-14T08:46:43.500Z,17
2022-11-14T08:47:52.028Z,17.200001
2022-11-14T08:49:00.371Z,17.200001
2022-11-14T08:50:08.703Z,17.200001
2022-11-14T08:51:17.237Z,16.1
2022-11-14T08:52:25.673Z,16.1
2022-11-14T08:53:33.977Z,16.1
2022-11-14T08:54:42.529Z,16.1
2022-11-14T08:55:50.856Z,16.1
2022-11-14T08:56:59.200Z,16.1
2022-11-14T08:58:07.743Z,15.8
2022-11-14T08:59:16.088Z,15.8
2022-11-14T09:00:24.486Z,15.8
2022-11-14T09:01:32.967Z,15.5
2022-11-14T09:02:41.305Z,15.5
2022-11-14T09:03:49.921Z,15.5
2022-11-14T09:04:58.185Z,15
2022-11-14T09:06:06.526Z,15
2022-11-14T09:07:14.929Z,15
2022-11-14T09:08:23.435Z,15.2
2022-11-14T09:09:31.750Z,15.2
2022-11-14T09:10:40.080Z,15.2
2022-11-14T09:11:48.638Z,14.5
2022-11-14T09:12:56.980Z,14.5
2022-11-14T09:14:05.324Z,14.5
2022-11-14T09:15:13.872Z,14.9
2022-11-14T09:16:22.204Z,14.9
2022-11-14T09:17:30.540Z,14.9
2022-11-14T09:18:39.090Z,14.3
2022-11-14T09:19:47.455Z,14.3
2022-11-14T09:20:55.761Z,14.3
2022-11-14T09:22:04.317Z,14.3
2022-11-14T09:23:12.650Z,14.3
2022-11-14T09:24:21.027Z,14.3
2022-11-14T09:25:29.536Z,14.3
2022-11-14T09:26:37.874Z,14.3
2022-11-14T09:27:46.232Z,14.3
2022-11-14T09:28:54.774Z,14.3
2022-11-14T09:30:03.114Z,14.3
2022-11-14T09:31:11.461Z,14.3
2022-11-14T09:32:20.017Z,13.6
2022-11-14T09:33:28.561Z,13.6
2022-11-14T09:34:36.702Z,13.6
2022-11-14T09:35:45.231Z,13.2
2022-11-14T09:36:53.569Z,13.2
2022-11-14T09:38:01.940Z,13.2
2022-11-14T09:39:10.441Z,13.2
2022-11-14T09:40:18.810Z,13.2
2022-11-14T09:41:27.131Z,13.2
2022-11-14T09:42:35.681Z,13.3
2022-11-14T09:43:44.021Z,13.3
2022-11-14T09:44:52.367Z,13.3
2022-11-14T09:46:00.897Z,12.9
2022-11-14T09:47:09.303Z,12.9
2022-11-14T09:48:17.635Z,12.9
2022-11-14T09:49:26.186Z,13.4
2022-11-14T09:50:34.524Z,13.4
2022-11-14T09:51:42.936Z,13.4
2022-11-14T09:52:51.517Z,12.4
2022-11-14T09:53:59.837Z,12.4
2022-11-14T09:55:08.181Z,12.4
2022-11-14T09:56:16.750Z,12.3
2022-11-14T09:57:25.068Z,12.3
2022-11-14T09:58:33.449Z,12.3
2022-11-14T09:59:41.957Z,12.7
2022-11-14T10:00:50.338Z,12.7
2022-11-14T10:01:58.889Z,12.7
2022-11-14T10:03:07.231Z,12.8
2022-11-14T10:04:15.560Z,12.8
2022-11-14T10:05:23.909Z,12.8
2022-11-14T10:06:32.449Z,12.6
2022-11-14T10:07:40.803Z,12.6
2022-11-14T10:08:49.143Z,12.6
2022-11-14T10:09:57.683Z,12
2022-11-14T10:11:06.020Z,12
2022-11-14T10:12:14.416Z,12
2022-11-14T10:13:22.949Z,11.4
2022-11-14T10:14:31.303Z,11.4
2022-11-14T10:15:39.634Z,11.4
2022-11-14T10:16:48.188Z,12.6
2022-11-14T10:17:56.520Z,12.6
2022-11-14T10:19:04.852Z,12.6
2022-11-14T10:20:13.401Z,11.2
2022-11-14T10:21:21.744Z,11.2
2022-11-14T10:22:30.096Z,11.2
2022-11-14T10:23:38.628Z,11.7
2022-11-14T10:24:46.991Z,11.7
2022-11-14T10:25:55.358Z,11.7
2022-11-14T10:27:03.907Z,11.6
2022-11-14T10:28:12.289Z,11.6
2022-11-14T10:29:20.612Z,11.6
2022-11-14T10:30:29.179Z,11.4
2022-11-14T10:31:37.510Z,11.4
2022-11-14T10:32:45.853Z,11.4
2022-11-14T10:33:54.394Z,10.7
2022-11-14T10:35:02.726Z,10.7
2022-11-14T10:36:11.091Z,10.7
2022-11-14T10:37:19.639Z,10.6
2022-11-14T10:38:28.066Z,10.6
2022-11-14T10:39:36.322Z,10.6
2022-11-14T10:40:44.869Z,10.3
2022-11-14T10:41:59.687Z,10.3
2022-11-14T10:43:01.549Z,10.3
2022-11-14T10:44:10.121Z,10.8
2022-11-14T10:45:18.442Z,10.8
2022-11-14T10:46:26.780Z,10.8
2022-11-14T10:47:35.330Z,9.9
2022-11-14T10:48:43.662Z,9.9
2022-11-14T10:49:51.996Z,9.9
2022-11-14T10:51:00.540Z,9.5
2022-11-14T10:52:08.905Z,9.5
2022-11-14T10:53:17.240Z,9.5
2022-11-14T10:54:25.786Z,9.8
2022-11-14T10:56:04.929Z,9.8
2022-11-14T10:56:42.473Z,9.8
2022-11-14T10:57:51.018Z,9.9
2022-11-14T10:58:59.352Z,9.9
2022-11-14T11:00:07.728Z,9.9
2022-11-14T11:01:16.301Z,10
2022-11-14T11:02:24.582Z,10
2022-11-14T11:03:32.977Z,10
2022-11-14T11:04:41.462Z,9.3
2022-11-14T11:05:49.799Z,9.3
2022-11-14T11:06:58.171Z,9.3
2022-11-14T11:08:41.773Z,9.5
2022-11-14T11:09:15.077Z,9.5
2022-11-14T11:10:23.361Z,9.5
2022-11-14T11:11:31.915Z,9.7
2022-11-14T11:12:40.319Z,9.7
2022-11-14T11:13:48.591Z,9.7
2022-11-14T11:14:57.148Z,9.1
2022-11-14T11:16:05.496Z,9.1
2022-11-14T11:17:13.808Z,9.1
2022-11-14T11:18:22.359Z,8.4
2022-11-14T11:19:30.699Z,8.4
2022-11-14T11:20:39.053Z,8.4
2022-11-14T11:21:47.621Z,8.8
2022-11-14T11:22:57.602Z,8.8
2022-11-14T11:24:04.309Z,8.8
2022-11-14T11:25:12.787Z,8.2
2022-11-14T11:26:21.127Z,8.2
2022-11-14T11:27:29.468Z,8.2
2022-11-14T11:28:38.024Z,7.8
2022-11-14T11:29:46.349Z,7.8
2022-11-14T11:30:54.735Z,7.8
2022-11-14T11:32:03.269Z,7
2022-11-14T11:33:11.586Z,7
2022-11-14T11:34:19.914Z,7
2022-11-14T11:35:28.470Z,7.4
2022-11-14T11:36:36.804Z,7.4
2022-11-14T11:37:45.197Z,7.4
2022-11-14T11:38:53.748Z,7.2
2022-11-14T11:40:02.087Z,7.2
2022-11-14T11:41:11.755Z,7.2
2022-11-14T11:42:18.960Z,7.1
2022-11-14T11:43:42.582Z,7.1
2022-11-14T11:44:35.622Z,7.1
2022-11-14T11:45:44.168Z,6.9
2022-11-14T11:46:52.519Z,6.9
2022-11-14T11:48:00.939Z,6.9
2022-11-14T11:49:09.490Z,7
2022-11-14T11:50:17.840Z,7
2022-11-14T11:51:26.194Z,7
2022-11-14T11:52:34.732Z,7.3
2022-11-14T11:53:43.069Z,7.3
2022-11-14T11:54:51.410Z,7.3
2022-11-14T11:55:59.950Z,7.7
2022-11-14T11:57:08.321Z,7.7
2022-11-14T11:58:16.651Z,7.7
2022-11-14T11:59:25.194Z,7.4
2022-11-14T12:00:33.529Z,7.4
2022-11-14T12:01:41.867Z,7.4
2022-11-14T12:02:50.674Z,7.2
2022-11-14T12:03:58.838Z,7.2
2022-11-14T12:05:07.125Z,7.2
2022-11-14T12:06:15.655Z,3.6
2022-11-14T12:07:24.042Z,3.6
2022-11-14T12:08:32.356Z,3.6
2022-11-14T12:10:09.135Z,3.1
2022-11-14T12:10:49.240Z,3.1
2022-11-14T12:11:57.608Z,3.1
2022-11-14T12:13:06.140Z,2.7
2022-11-14T12:14:14.512Z,2.7
2022-11-14T12:15:22.873Z,2.7
2022-11-14T12:16:31.416Z,3.5
2022-11-14T12:17:39.770Z,3.5
2022-11-14T12:18:48.096Z,3.5
2022-11-14T12:19:56.661Z,3
2022-11-14T12:21:04.986Z,3
2022-11-14T12:22:13.379Z,3
2022-11-14T12:23:21.911Z,3.2
2022-11-14T12:24:30.245Z,3.2
2022-11-14T12:25:38.583Z,3.2
2022-11-14T12:26:47.135Z,3.3
2022-11-14T12:27:55.562Z,3.3
2022-11-14T12:29:03.826Z,3.3
2022-11-14T12:30:12.393Z,3.4
2022-11-14T12:31:20.727Z,3.4
2022-11-14T12:32:29.064Z,3.4
2022-11-14T12:33:37.639Z,3.5
2022-11-14T12:34:45.960Z,3.5
2022-11-14T12:35:54.314Z,3.5
2022-11-14T12:37:02.859Z,3.3
2022-11-14T12:38:11.169Z,3.3
2022-11-14T12:39:19.508Z,3.3
2022-11-14T12:40:28.053Z,3.6
2022-11-14T12:41:36.398Z,3.6
2022-11-14T12:42:44.734Z,3.6
2022-11-14T12:43:53.434Z,3.7
2022-11-14T12:45:01.621Z,3.7
2022-11-14T12:46:09.944Z,3.7
2022-11-14T12:47:18.505Z,3.5
2022-11-14T12:48:26.842Z,3.5
2022-11-14T12:49:35.459Z,3.5
2022-11-14T12:50:43.767Z,4
2022-11-14T12:51:52.098Z,4
2022-11-14T12:53:00.412Z,4
2022-11-14T12:54:08.950Z,4.1
2022-11-14T12:55:17.295Z,4.1
2022-11-14T12:56:25.646Z,4.1
2022-11-14T12:57:34.205Z,4
2022-11-14T12:58:42.534Z,4
2022-11-14T12:59:50.856Z,4
2022-11-14T13:00:59.450Z,4.1
2022-11-14T13:02:07.748Z,4.1
2022-11-14T13:03:16.088Z,4.1
2022-11-14T13:04:24.630Z,4
2022-11-14T13:05:32.977Z,4
2022-11-14T13:06:41.322Z,4
2022-11-14T13:07:49.889Z,4
2022-11-14T13:08:58.202Z,4
2022-11-14T13:10:06.574Z,4
2022-11-14T13:11:15.117Z,3.7
2022-11-14T13:12:23.469Z,3.7
2022-11-14T13:13:32.111Z,3.7
2022-11-14T13:14:40.439Z,3.7
2022-11-14T13:15:49.570Z,3.7
2022-11-14T13:16:57.094Z,3.7
2022-11-14T13:18:05.650Z,3.7
2022-11-14T13:19:13.980Z,3.7
2022-11-14T13:20:22.343Z,3.7
2022-11-14T13:21:30.900Z,3.9
2022-11-14T13:22:39.229Z,3.9
2022-11-14T13:23:47.600Z,3.9
2022-11-14T13:24:56.115Z,4.1
2022-11-14T13:26:04.469Z,4.1
2022-11-14T13:27:12.856Z,4.1
2022-11-14T13:28:24.868Z,4.4
2022-11-14T13:29:29.723Z,4.4
2022-11-14T13:30:38.062Z,4.4
2022-11-14T13:31:46.628Z,4.2
2022-11-14T13:32:54.953Z,4.2
2022-11-14T13:34:03.291Z,4.2
2022-11-14T13:35:11.844Z,4.3
2022-11-14T13:36:20.182Z,4.3
2022-11-14T13:37:28.515Z,4.3
2022-11-14T13:38:37.060Z,4.2
2022-11-14T13:39:45.421Z,4.2
2022-11-14T13:40:53.733Z,4.2
2022-11-14T13:42:02.291Z,4.3
2022-11-14T13:43:10.626Z,4.3
2022-11-14T13:44:18.964Z,4.3
2022-11-14T13:45:27.509Z,4.2
2022-11-14T13:46:35.852Z,4.2
2022-11-14T13:47:44.223Z,4.2
2022-11-14T13:48:52.749Z,3.9
2022-11-14T13:50:01.126Z,3.9
2022-11-14T13:51:28.802Z,3.9
2022-11-14T13:52:18.021Z,3.8
2022-11-14T13:53:26.355Z,3.8
2022-11-14T13:54:34.770Z,3.8
2022-11-14T13:55:43.313Z,4.1
2022-11-14T13:56:51.625Z,4.1
2022-11-14T13:57:59.962Z,4.1
2022-11-14T13:59:08.520Z,4.1
2022-11-14T14:00:20.315Z,4.1
2022-11-14T14:01:25.257Z,4.1
2022-11-14T14:02:33.745Z,3.6
2022-11-14T14:03:42.084Z,3.6
2022-11-14T14:04:50.438Z,3.6
2022-11-14T14:06:04.120Z,3.6
2022-11-14T14:07:07.395Z,3.6
2022-11-14T14:08:15.672Z,3.6
2022-11-14T14:09:24.210Z,3.7
2022-11-14T14:10:32.562Z,3.7
2022-11-14T14:11:43.129Z,3.7
2022-11-14T14:12:49.433Z,3.8
2022-11-14T14:13:57.769Z,3.8
2022-11-14T14:15:06.159Z,3.8
2022-11-14T14:16:14.729Z,3.6
2022-11-14T14:17:23.079Z,3.6
2022-11-14T14:18:31.772Z,3.6
2022-11-14T14:19:39.970Z,3.5
2022-11-14T14:20:48.342Z,3.5
2022-11-14T14:21:57.247Z,3.5
2022-11-14T14:23:05.780Z,3.7
2022-11-14T14:24:14.129Z,3.7
2022-11-14T14:25:22.466Z,3.7
2022-11-14T14:26:31.025Z,3.8
2022-11-14T14:27:39.392Z,3.8
2022-11-14T14:28:47.704Z,3.8
2022-11-14T15:03:04.963Z,0
2022-11-14T15:04:13.287Z,0
2022-11-14T15:05:21.664Z,0
2022-11-14T15:06:30.239Z,4.8
2022-11-14T15:07:38.582Z,4.8
2022-11-14T15:08:46.951Z,4.8
2022-11-14T15:09:55.518Z,5
2022-11-14T15:11:03.919Z,5
2022-11-14T15:12:12.259Z,5
2022-11-14T15:13:20.822Z,4.8
2022-11-14T15:14:29.186Z,4.8
2022-11-14T15:15:37.536Z,4.8
2022-11-14T15:16:46.099Z,5.3
2022-11-14T15:17:54.450Z,5.3
2022-11-14T15:19:02.835Z,5.3
2022-11-14T15:20:11.400Z,5.4
2022-11-14T15:21:19.743Z,5.4
2022-11-14T15:22:28.164Z,5.4
2022-11-14T15:23:36.710Z,5.4
2022-11-14T15:24:45.078Z,5.4
2022-11-14T15:25:53.423Z,5.4
2022-11-14T15:27:01.991Z,5.6
2022-11-14T15:28:12.992Z,5.6